Time;durP1;ratioP1;P1;durP2;ratioP2;P2;SDS_P1;SDS_P2;PMS_P1;PMS_P2;Temp;Humidity;BMP_temperature;BMP_pressure;BME280_temperature;BME280_humidity;BME280_pressure;Samples;Min_cycle;Max_cycle;Signal;HPM_P1;HPM_P2
2022/04/11 00:02:00;;;;;;;14.13;7.05;;;;;;;-146.64;100.00;91503.59;5091570;28;20397;-75
2022/04/11 00:04:26;;;;;;;13.57;7.20;;;;;;;-146.64;100.00;89911.41;5061517;28;20032;-76
2022/04/11 00:06:51;;;;;;;20.38;7.90;;;;;;;-146.64;100.00;86463.78;5085182;28;20027;-75
2022/04/11 00:09:16;;;;;;;14.65;8.02;;;;;;;-146.64;100.00;86463.78;5083315;28;20053;-76
2022/04/11 00:11:42;;;;;;;19.25;8.10;;;;;;;-146.64;100.00;87259.13;5085880;28;20099;-76
2022/04/11 00:14:07;;;;;;;18.08;7.53;;;;;;;-146.64;100.00;86463.78;5099944;28;20023;-75
2022/04/11 00:16:34;;;;;;;14.82;7.25;;;;;;;-146.64;100.00;80106.72;5092987;28;20015;-75
2022/04/11 00:18:59;;;;;;;15.07;7.53;;;;;;;-146.64;100.00;76138.66;5084523;28;20569;-75
2022/04/11 00:21:24;;;;;;;17.90;9.27;;;;;;;-146.64;100.00;76931.94;5089982;28;20115;-76
2022/04/11 00:23:51;;;;;;;21.85;7.82;;;;;;;-146.64;100.00;81959.81;5084933;28;20055;-76
2022/04/11 00:26:17;;;;;;;13.68;6.82;;;;;;;-146.64;100.00;84343.66;5093668;28;20032;-76
2022/04/11 00:28:42;;;;;;;14.18;7.65;;;;;;;-146.64;100.00;77989.94;5091251;28;20042;-76
2022/04/11 00:31:07;;;;;;;12.80;7.22;;;;;;;-146.64;100.00;77725.41;5076409;28;20019;-75
2022/04/11 00:33:33;;;;;;;16.42;8.38;;;;;;;-146.64;100.00;73231.22;5075222;28;20024;-75
2022/04/11 00:35:58;;;;;;;20.48;8.88;;;;;;;-146.64;100.00;74023.97;5089383;28;20042;-75
2022/04/11 00:38:23;;;;;;;14.38;8.57;;;;;;;-146.64;100.00;69797.91;5064446;28;20062;-76
2022/04/11 00:40:49;;;;;;;13.73;8.55;;;;;;;-146.64;100.00;64785.31;5066825;28;20031;-75
2022/04/11 00:43:34;;;;;;;15.27;8.02;;;;;;;-146.64;100.00;63994.41;5071211;28;20031;-76
2022/04/11 00:46:00;;;;;;;16.13;9.07;;;;;;;-146.64;100.00;67422.72;5089094;28;20362;-76
2022/04/11 00:48:25;;;;;;;19.13;7.73;;;;;;;-146.64;100.00;66895.09;5086598;28;20032;-75
2022/04/11 00:50:54;;;;;;;14.63;8.35;;;;;;;-146.64;100.00;68478.19;5083876;28;20028;-75
2022/04/11 00:53:19;;;;;;;17.58;8.90;;;;;;;-146.64;100.00;66631.31;5074547;28;20470;-76
2022/04/11 00:55:45;;;;;;;13.10;8.23;;;;;;;-146.64;100.00;70061.91;5107849;28;20038;-75
2022/04/11 00:58:12;;;;;;;12.48;8.00;;;;;;;-146.64;100.00;76403.06;5087270;28;20030;-75
2022/04/11 01:00:39;;;;;;;13.68;8.60;;;;;;;-146.64;100.00;74816.84;5085312;28;20020;-74
2022/04/11 01:03:04;;;;;;;14.48;8.77;;;;;;;-146.64;100.00;74288.22;5064910;28;20024;-75
2022/04/11 01:05:29;;;;;;;13.85;9.30;;;;;;;-146.64;100.00;70589.97;5108297;28;20035;-75
2022/04/11 01:07:59;;;;;;;16.13;8.60;;;;;;;-146.64;100.00;71382.16;5088783;28;20028;-75
2022/04/11 01:10:25;;;;;;;16.02;8.38;;;;;;;-146.64;100.00;74816.84;5070235;28;20028;-76
2022/04/11 01:12:50;;;;;;;13.30;8.63;;;;;;;-146.64;100.00;75081.16;5074917;28;20039;-75
2022/04/11 01:15:15;;;;;;;17.52;8.82;;;;;;;-146.64;100.00;75609.88;5091897;28;20110;-75
2022/04/11 01:17:41;;;;;;;17.45;8.32;;;;;;;-146.64;100.00;76403.06;5084418;28;20031;-75
2022/04/11 01:20:12;;;;;;;13.90;7.82;;;;;;;-146.64;100.00;76667.50;5088218;28;20176;-75
2022/04/11 01:22:38;;;;;;;11.35;8.15;;;;;;;-146.64;100.00;75081.16;5073473;28;20036;-75
2022/04/11 01:25:04;;;;;;;16.98;8.02;;;;;;;-146.64;100.00;75345.50;5101308;28;20027;-75
2022/04/11 01:27:30;;;;;;;16.92;8.38;;;;;;;-146.64;100.00;77725.41;5091695;28;20406;-75
2022/04/11 01:29:55;;;;;;;14.43;8.83;;;;;;;-146.64;100.00;79842.06;5084912;28;20201;-76
2022/04/11 01:32:20;;;;;;;11.45;8.07;;;;;;;-146.64;100.00;82754.28;5064086;28;20047;-76
2022/04/11 01:34:46;;;;;;;20.60;8.40;;;;;;;-146.64;100.00;84608.59;5072404;28;20262;-76
2022/04/11 01:37:11;;;;;;;18.85;9.07;;;;;;;-146.64;100.00;84608.59;5086160;28;20023;-75
2022/04/11 01:39:37;;;;;;;15.35;9.18;;;;;;;-146.64;100.00;82754.28;5073220;28;20378;-75
2022/04/11 01:42:03;;;;;;;21.45;8.93;;;;;;;-146.64;100.00;84608.59;5082988;28;20115;-75
2022/04/11 01:44:28;;;;;;;11.30;8.38;;;;;;;-146.64;100.00;85138.56;5084436;28;20054;-75
2022/04/11 01:46:53;;;;;;;11.80;7.15;;;;;;;-146.64;100.00;84343.66;5109228;28;20160;-75
2022/04/11 01:49:19;;;;;;;12.50;7.75;;;;;;;-146.64;100.00;84078.72;5106531;28;20042;-75
2022/04/11 01:51:44;;;;;;;13.90;8.27;;;;;;;-146.64;100.00;84873.56;5078218;28;20028;-76
2022/04/11 01:54:09;;;;;;;16.63;8.82;;;;;;;-146.64;100.00;84873.56;5105446;28;20036;-75
2022/04/11 01:56:35;;;;;;;13.55;8.90;;;;;;;-146.64;100.00;86198.72;5107877;28;20039;-75
2022/04/11 01:59:00;;;;;;;12.80;8.35;;;;;;;-146.64;100.00;88850.28;5077666;28;20048;-75
2022/04/11 02:01:25;;;;;;;15.35;8.45;;;;;;;-146.64;100.00;87789.44;5106479;28;20031;-75
2022/04/11 02:03:50;;;;;;;14.60;9.20;;;;;;;-146.64;100.00;89646.09;5088819;28;20419;-75
2022/04/11 02:06:16;;;;;;;14.13;8.93;;;;;;;-146.64;100.00;91503.59;5080975;28;20039;-76
2022/04/11 02:08:41;;;;;;;15.60;8.55;;;;;;;-146.64;100.00;90442.06;5099451;28;20023;-75
2022/04/11 02:11:08;;;;;;;23.77;8.80;;;;;;;-146.64;100.00;90442.06;5077709;28;20040;-75
2022/04/11 02:13:33;;;;;;;11.93;8.15;;;;;;;-146.64;100.00;91503.59;5104331;28;20038;-75
2022/04/11 02:15:59;;;;;;;16.38;8.52;;;;;;;-146.64;100.00;91503.59;5068249;28;20390;-75
2022/04/11 02:18:24;;;;;;;13.10;8.75;;;;;;;-146.64;100.00;93361.97;5085521;28;20095;-75
2022/04/11 02:20:50;;;;;;;17.45;8.70;;;;;;;-146.64;100.00;93627.50;5072715;28;20115;-75
2022/04/11 02:23:15;;;;;;;14.60;9.13;;;;;;;-146.64;100.00;93893.06;5105196;28;20035;-74
2022/04/11 02:25:40;;;;;;;16.75;8.52;;;;;;;-146.64;100.00;93627.50;5078520;28;20467;-75
2022/04/11 02:28:06;;;;;;;10.65;8.30;;;;;;;-146.64;100.00;95752.53;5082841;28;20028;-75
2022/04/11 02:30:31;;;;;;;10.98;8.98;;;;;;;-146.64;100.00;95752.53;5086983;28;20032;-75
2022/04/11 02:32:57;;;;;;;12.73;8.65;;;;;;;-146.64;100.00;95752.53;5088755;28;20482;-76
2022/04/11 02:35:23;;;;;;;15.43;8.50;;;;;;;-146.64;100.00;97347.03;5089291;28;20046;-76
2022/04/11 02:37:49;;;;;;;13.10;8.07;;;;;;;-146.64;100.00;96815.47;5069912;28;20051;-75
2022/04/11 02:40:15;;;;;;;12.63;8.25;;;;;;;-146.64;100.00;95752.53;5074476;28;20031;-74
2022/04/11 02:42:42;;;;;;;13.13;8.30;;;;;;;-146.64;100.00;97612.84;5082548;28;20032;-75
2022/04/11 02:45:07;;;;;;;;;;;;;;;-146.64;100.00;97081.25;5087256;28;20028;-75
2022/04/11 02:47:34;;;;;;;20.85;9.13;;;;;;;-146.64;100.00;97878.69;5080031;28;19927;-75
2022/04/11 02:49:59;;;;;;;10.93;6.33;;;;;;;-146.64;100.00;99208.09;5083336;28;20112;-75
2022/04/11 02:52:24;;;;;;;12.98;8.13;;;;;;;-146.64;100.00;98410.41;5072365;28;20154;-76
2022/04/11 02:54:50;;;;;;;13.23;7.95;;;;;;;-146.64;100.00;99208.09;5103798;28;20106;-75
2022/04/11 02:57:15;;;;;;;12.80;9.23;;;;;;;-146.64;100.00;100005.94;5097333;28;20112;-76
2022/04/11 02:59:40;;;;;;;11.20;8.82;;;;;;;-146.64;100.00;101868.22;5079391;28;20442;-75
2022/04/11 03:02:07;;;;;;;15.63;9.77;;;;;;;-146.64;100.00;102134.31;5079012;28;20039;-76
2022/04/11 03:04:32;;;;;;;12.57;9.13;;;;;;;-146.64;100.00;102400.44;5066651;28;20443;-75
2022/04/11 03:06:57;;;;;;;13.93;8.95;;;;;;;-146.64;100.00;101602.13;5079842;28;20031;-75
2022/04/11 03:09:23;;;;;;;11.70;8.57;;;;;;;-146.64;100.00;101602.13;5086066;28;20028;-75
2022/04/11 03:11:51;;;;;;;15.43;9.23;;;;;;;-146.64;100.00;102666.59;5092474;28;20020;-75
2022/04/11 03:14:17;;;;;;;13.30;9.05;;;;;;;-146.64;100.00;102666.59;5071516;28;20134;-75
2022/04/11 03:16:42;;;;;;;12.18;8.23;;;;;;;-146.64;100.00;101868.22;5065403;28;20094;-75
2022/04/11 03:19:08;;;;;;;12.48;9.57;;;;;;;-146.64;100.00;104263.81;5087360;28;20022;-75
2022/04/11 03:21:34;;;;;;;15.57;9.27;;;;;;;-146.64;100.00;105861.69;5088056;28;20019;-75
2022/04/11 03:24:00;;;;;;;15.18;9.80;;;;;;;-146.64;100.00;106394.44;5087147;28;20036;-75
2022/04/11 03:26:25;;;;;;;14.13;8.82;;;;;;;-146.64;100.00;104796.38;5076970;28;20019;-75
2022/04/11 03:28:50;;;;;;;17.83;9.90;;;;;;;-146.64;100.00;105861.69;5074728;28;20491;-75
2022/04/11 03:31:16;;;;;;;13.85;10.20;;;;;;;-146.64;100.00;106128.03;5070873;28;20032;-75
2022/04/11 03:33:41;;;;;;;13.85;8.80;;;;;;;-146.64;100.00;106660.84;5096636;28;20419;-76
2022/04/11 03:36:06;;;;;;;16.15;9.20;;;;;;;-146.64;100.00;105861.69;5088678;28;20027;-76
2022/04/11 03:38:32;;;;;;;13.85;8.95;;;;;;;-146.64;100.00;105595.31;5085905;28;20114;-75
2022/04/11 03:40:57;;;;;;;15.85;9.23;;;;;;;-146.64;100.00;105329.00;5071828;28;20100;-75
2022/04/11 03:43:22;;;;;;;11.85;8.75;;;;;;;-146.64;100.00;105595.31;5067013;28;20024;-76
2022/04/11 03:45:48;;;;;;;13.35;9.57;;;;;;;-146.64;100.00;106927.25;5077491;28;20032;-76
2022/04/11 03:48:13;;;;;;;14.65;9.32;;;;;;;-146.64;100.00;107460.16;5105594;28;20020;-75
2022/04/11 03:50:39;;;;;;;12.75;9.00;;;;;;;-146.64;100.00;107460.16;5074804;28;20115;-76
2022/04/11 03:53:04;;;;;;;13.05;9.70;;;;;;;-146.64;100.00;107460.16;5108727;28;20055;-76
2022/04/11 03:55:30;;;;;;;13.43;8.77;;;;;;;-146.64;100.00;107460.16;5094229;28;20126;-75
2022/04/11 03:57:55;;;;;;;16.42;9.55;;;;;;;-146.64;100.00;107726.63;5087892;28;20055;-75
2022/04/11 04:00:20;;;;;;;16.08;9.95;;;;;;;-146.64;100.00;108259.63;5082485;28;20442;-76
2022/04/11 04:02:46;;;;;;;13.88;8.80;;;;;;;-146.64;100.00;107726.63;5074354;28;20060;-77
2022/04/11 04:05:12;;;;;;;15.45;9.35;;;;;;;-146.64;100.00;107193.69;5091585;28;20080;-76
2022/04/11 04:07:38;;;;;;;13.68;10.18;;;;;;;-146.64;100.00;107193.69;5088772;28;20478;-76
2022/04/11 04:10:04;;;;;;;15.93;9.65;;;;;;;-146.64;100.00;107193.69;5077754;28;20097;-77
2022/04/11 04:12:30;;;;;;;18.05;9.50;;;;;;;-146.64;100.00;108792.72;5090523;28;20607;-76
2022/04/11 04:14:55;;;;;;;19.00;10.63;;;;;;;-146.64;100.00;109059.28;5093470;28;20067;-76
2022/04/11 04:17:21;;;;;;;14.07;9.38;;;;;;;-146.64;100.00;108526.16;5109195;28;20046;-75
2022/04/11 04:19:46;;;;;;;24.00;10.48;;;;;;;-146.64;100.00;109325.84;5091917;28;20035;-76
2022/04/11 04:22:12;;;;;;;21.10;10.50;;;;;;;-146.64;100.00;110125.69;5070842;28;20409;-76
2022/04/11 04:24:37;;;;;;;17.77;9.95;;;;;;;-146.64;100.00;109059.28;5076417;28;20035;-76
2022/04/11 04:27:05;;;;;;;18.73;9.80;;;;;;;-146.64;100.00;108526.16;5090717;28;20027;-75
2022/04/11 04:29:30;;;;;;;13.50;9.50;;;;;;;-146.64;100.00;109325.84;5082062;28;20034;-75
2022/04/11 04:31:56;;;;;;;12.88;9.77;;;;;;;-146.64;100.00;109592.44;5073670;28;20107;-76
2022/04/11 04:34:22;;;;;;;17.23;10.70;;;;;;;-146.64;100.00;109859.06;5102277;28;20036;-76
2022/04/11 04:36:48;;;;;;;16.13;9.40;;;;;;;-146.64;100.00;109859.06;5057499;28;20036;-75
2022/04/11 04:39:13;;;;;;;15.75;10.85;;;;;;;-146.64;100.00;110392.34;5085856;28;20541;-76
2022/04/11 04:41:39;;;;;;;18.65;11.23;;;;;;;-146.64;100.00;110659.00;5086732;28;20103;-76
2022/04/11 04:44:06;;;;;;;15.70;10.10;;;;;;;-146.64;100.00;110659.00;5067717;28;20471;-76
2022/04/11 04:46:35;;;;;;;18.08;11.77;;;;;;;-146.64;100.00;111992.59;5076253;28;20460;-75
2022/04/11 04:49:01;;;;;;;17.70;12.13;;;;;;;-146.64;100.00;112792.97;5081361;28;20111;-76
2022/04/11 04:51:26;;;;;;;17.27;12.35;;;;;;;-146.64;100.00;113593.50;5086418;28;20127;-76
2022/04/11 04:53:52;;;;;;;19.55;12.30;;;;;;;-146.64;100.00;113860.38;5102320;28;20028;-76
2022/04/11 04:56:17;;;;;;;15.55;11.23;;;;;;;-146.64;100.00;113593.50;5080244;28;20490;-75
2022/04/11 04:58:45;;;;;;;18.95;11.88;;;;;;;-146.64;100.00;113326.63;5090593;28;20093;-76
2022/04/11 05:01:11;;;;;;;16.98;11.40;;;;;;;-146.64;100.00;113326.63;5103206;28;20020;-76
2022/04/11 05:03:36;;;;;;;18.98;11.70;;;;;;;-146.64;100.00;112792.97;5073305;28;20080;-76
2022/04/11 05:06:02;;;;;;;18.38;11.98;;;;;;;-146.64;100.00;112792.97;5067166;28;20028;-76
2022/04/11 05:08:27;;;;;;;27.83;18.02;;;;;;;-146.64;100.00;113059.81;5072058;28;20327;-76
2022/04/11 05:10:52;;;;;;;21.65;14.68;;;;;;;-146.64;100.00;112792.97;5072962;28;20024;-76
2022/04/11 05:13:18;;;;;;;16.27;11.60;;;;;;;-146.64;100.00;111992.59;5082022;28;20080;-76
2022/04/11 05:15:46;;;;;;;18.50;12.80;;;;;;;-146.64;100.00;112259.38;5095953;28;20035;-76
2022/04/11 05:18:11;;;;;;;20.05;12.15;;;;;;;-146.64;100.00;112526.16;5084776;28;20032;-76
2022/04/11 05:20:36;;;;;;;18.75;11.32;;;;;;;-146.64;100.00;112259.38;5076600;28;20028;-76
2022/04/11 05:23:02;;;;;;;19.27;12.45;;;;;;;-146.64;100.00;110659.00;5085218;28;20126;-76
2022/04/11 05:25:27;;;;;;;23.42;11.55;;;;;;;-146.64;100.00;110392.34;5082088;28;20531;-75
2022/04/11 05:27:52;;;;;;;15.98;11.65;;;;;;;-146.64;100.00;110392.34;5088653;28;20064;-74
2022/04/11 05:30:18;;;;;;;19.17;12.25;;;;;;;-146.64;100.00;109592.44;5101020;28;20028;-75
2022/04/11 05:32:43;;;;;;;22.30;12.63;;;;;;;-146.64;100.00;109325.84;5062707;28;20022;-75
2022/04/11 05:35:09;;;;;;;21.60;11.88;;;;;;;-146.64;100.00;109592.44;5085560;28;20409;-75
2022/04/11 05:37:35;;;;;;;23.20;12.95;;;;;;;-146.64;100.00;109059.28;5084744;28;20023;-76
2022/04/11 05:40:00;;;;;;;16.42;11.18;;;;;;;-146.64;100.00;108526.16;5067604;28;20024;-75
2022/04/11 05:42:26;;;;;;;15.93;11.48;;;;;;;-146.64;100.00;107993.13;5083199;28;20023;-76
2022/04/11 05:44:51;;;;;;;15.35;12.00;;;;;;;-146.64;100.00;106927.25;5070189;28;20035;-75
2022/04/11 05:47:16;;;;;;;21.15;12.20;;;;;;;-146.64;100.00;106128.03;5089538;28;20031;-75
2022/04/11 05:49:42;;;;;;;18.70;12.60;;;;;;;-146.64;100.00;103997.56;5077243;28;20573;-75
2022/04/11 05:52:08;;;;;;;18.45;12.27;;;;;;;-146.64;100.00;101868.22;5074091;28;20039;-76
2022/04/11 05:54:36;;;;;;;17.48;11.90;;;;;;;-146.64;100.00;96549.72;5083851;28;20478;-76
2022/04/11 05:57:01;;;;;;;20.77;11.73;;;;;;;-146.64;100.00;91503.59;5086528;28;20032;-75
2022/04/11 05:59:26;;;;;;;18.02;12.35;;;;;;;-146.64;100.00;89115.53;5083976;28;20030;-75
2022/04/11 06:01:52;;;;;;;17.00;12.57;;;;;;;-146.64;100.00;83813.78;5086594;28;20038;-75
2022/04/11 06:04:17;;;;;;;20.77;11.35;;;;;;;-146.64;100.00;76931.94;5082288;28;20023;-75
2022/04/11 06:06:43;;;;;;;20.52;11.70;;;;;;;-146.64;100.00;72702.84;5082310;28;20023;-75
2022/04/11 06:09:08;;;;;;;19.13;10.70;;;;;;;-146.64;100.00;71118.06;5081975;28;20383;-75
2022/04/11 06:11:33;;;;;;;16.02;10.90;;;;;;;-146.64;100.00;66367.56;5089131;28;20088;-74
2022/04/11 06:13:59;;;;;;;15.52;10.88;;;;;;;-146.64;100.00;60305.66;5094906;28;20459;-76
2022/04/11 06:16:24;;;;;;;15.00;11.32;;;;;;;-146.64;100.00;57936.13;5070440;28;20127;-76
2022/04/11 06:18:49;;;;;;;18.67;11.23;;;;;;;-146.64;100.00;51308.16;5083668;28;20104;-76
2022/04/11 06:21:14;;;;;;;16.13;10.65;;;;;;;-146.64;100.00;46138.41;5078316;28;20077;-75
2022/04/11 06:23:40;;;;;;;17.90;10.70;;;;;;;-146.64;100.00;44568.31;5088114;28;20062;-75
2022/04/11 06:26:05;;;;;;;19.42;11.50;;;;;;;-146.64;100.00;43027.50;5089397;28;20494;-75
2022/04/11 06:28:30;;;;;;;18.35;10.50;;;;;;;-146.64;100.00;42679.28;5104589;28;20405;-76
2022/04/11 06:30:56;;;;;;;22.13;10.95;;;;;;;-146.64;100.00;42527.69;5072233;28;20424;-76
2022/04/11 06:33:21;;;;;;;14.85;9.85;;;;;;;-146.64;100.00;41786.28;5090103;28;20093;-76
2022/04/11 06:35:46;;;;;;;15.18;9.75;;;;;;;-146.64;100.00;41376.75;5086315;28;20413;-76
2022/04/11 06:38:12;;;;;;;18.73;9.90;;;;;;;-146.64;100.00;41102.38;5088533;28;20091;-75
2022/04/11 06:40:37;;;;;;;12.20;8.90;;;;;;;-146.64;100.00;40308.00;5071142;28;20061;-75
2022/04/11 06:43:02;;;;;;;15.18;9.00;;;;;;;-146.64;100.00;39874.03;5085856;28;20114;-78
2022/04/11 06:45:28;;;;;;;13.40;9.38;;;;;;;-146.64;100.00;39808.53;5070185;28;20439;-76
2022/04/11 06:47:53;;;;;;;19.80;9.00;;;;;;;-146.64;100.00;39673.44;5108551;28;20055;-75
2022/04/11 06:50:18;;;;;;;11.48;8.40;;;;;;;-146.64;100.00;39595.66;5105756;28;20031;-77
2022/04/11 06:52:44;;;;;;;13.95;8.93;;;;;;;-146.64;100.00;39571.09;5080016;28;20032;-74
2022/04/11 06:55:09;;;;;;;13.13;7.85;;;;;;;-146.64;100.00;39489.25;5084254;28;20032;-76
2022/04/11 06:57:34;;;;;;;15.25;8.43;;;;;;;-146.64;100.00;39479.00;5065739;28;20059;-75
2022/04/11 07:00:01;;;;;;;17.25;8.40;;;;;;;-146.64;100.00;39456.50;5081204;28;20108;-75
2022/04/11 07:02:26;;;;;;;16.88;8.70;;;;;;;-146.64;100.00;39395.09;5089618;28;20478;-76
2022/04/11 07:04:52;;;;;;;12.07;7.22;;;;;;;-146.64;100.00;39364.41;5061795;28;20080;-74
2022/04/11 07:07:18;;;;;;;11.90;8.35;;;;;;;-146.64;100.00;39198.63;5062896;28;20102;-76
2022/04/11 07:09:43;;;;;;;12.83;7.53;;;;;;;-146.64;100.00;39063.56;5084533;28;20482;-77
2022/04/11 07:12:09;;;;;;;14.05;7.93;;;;;;;-146.64;100.00;39079.91;5088768;28;20073;-76
2022/04/11 07:14:34;;;;;;;9.85;6.80;;;;;;;-146.64;100.00;39008.28;5079035;28;20027;-76
2022/04/11 07:17:00;;;;;;;11.45;6.50;;;;;;;-146.64;100.00;38891.66;5086229;28;20035;-76
2022/04/11 07:19:25;;;;;;;14.95;6.45;;;;;;;-146.64;100.00;38979.66;5089243;28;20050;-76
2022/04/11 07:21:51;;;;;;;15.83;7.10;;;;;;;-146.64;100.00;38871.19;5097345;28;20035;-76
2022/04/11 07:24:16;;;;;;;22.30;7.27;;;;;;;-146.64;100.00;38863.00;5070051;28;20473;-76
2022/04/11 07:26:41;;;;;;;10.75;5.82;;;;;;;-146.64;100.00;38801.63;5071672;28;20059;-76
2022/04/11 07:29:07;;;;;;;12.37;6.17;;;;;;;-146.64;99.22;38858.91;5098419;28;20055;-76
2022/04/11 07:31:33;;;;;;;10.50;5.80;;;;;;;-146.64;95.72;38881.41;5086587;28;20470;-76
2022/04/11 07:33:58;;;;;;;9.18;5.50;;;;;;;-146.64;92.50;38828.22;5084856;28;20042;-77
2022/04/11 07:36:23;;;;;;;13.13;5.10;;;;;;;-146.64;84.51;38850.72;5077265;28;20046;-76
2022/04/11 07:38:49;;;;;;;10.17;5.20;;;;;;;-146.64;85.76;38811.84;5086873;28;20020;-74
2022/04/11 07:41:14;;;;;;;15.13;6.13;;;;;;;-146.64;86.07;38854.81;5087049;28;20324;-75
2022/04/11 07:43:39;;;;;;;8.57;4.97;;;;;;;-146.64;85.59;38822.06;5081747;28;20039;-75
2022/04/11 07:46:05;;;;;;;7.40;4.73;;;;;;;-146.64;85.46;38834.34;5079440;28;20028;-75
2022/04/11 07:48:33;;;;;;;11.57;5.70;;;;;;;-146.64;76.61;38877.31;5090675;28;20550;-74
2022/04/11 07:50:59;;;;;;;13.43;4.88;;;;;;;-146.64;77.21;38863.00;5076154;28;20165;-75
2022/04/11 07:53:24;;;;;;;10.63;5.00;;;;;;;-146.64;81.23;38852.78;5073140;28;20549;-76
2022/04/11 07:55:50;;;;;;;6.80;4.53;;;;;;;-146.64;77.16;38871.19;5101343;28;20042;-74
2022/04/11 07:58:16;;;;;;;13.10;5.87;;;;;;;-146.64;82.44;38891.66;5066542;28;20027;-75
2022/04/11 08:00:42;;;;;;;12.15;5.53;;;;;;;-146.64;86.42;38887.56;5089219;28;20140;-75
2022/04/11 08:03:08;;;;;;;7.43;5.03;;;;;;;-146.64;79.99;38887.56;5106698;28;20423;-74
2022/04/11 08:05:33;;;;;;;7.17;5.00;;;;;;;-146.64;77.21;38924.41;5063732;28;20051;-76
2022/04/11 08:07:59;;;;;;;7.53;4.97;;;;;;;-146.64;83.17;38903.94;5083589;28;20383;-75
2022/04/11 08:10:25;;;;;;;13.65;5.75;;;;;;;-146.64;78.97;38891.66;5085313;28;20023;-75
2022/04/11 08:12:54;;;;;;;7.95;5.20;;;;;;;-146.64;77.71;38891.66;5071430;28;20040;-75
2022/04/11 08:15:20;;;;;;;8.20;5.07;;;;;;;-146.64;75.50;38826.16;5088482;28;20107;-75
2022/04/11 08:17:45;;;;;;;14.27;5.70;;;;;;;-146.64;75.51;38822.06;5085606;28;20107;-76
2022/04/11 08:20:11;;;;;;;12.65;5.85;;;;;;;-146.64;73.84;38858.91;5082889;28;20169;-75
2022/04/11 08:22:36;;;;;;;16.70;5.97;;;;;;;-146.64;71.65;38869.13;5087245;28;20023;-76
2022/04/11 08:25:01;;;;;;;11.82;5.50;;;;;;;-146.64;70.14;38854.81;5080674;28;20047;-75
2022/04/11 08:27:27;;;;;;;15.52;5.22;;;;;;;-146.64;75.81;38834.34;5074043;28;20038;-75
2022/04/11 08:29:52;;;;;;;10.27;5.55;;;;;;;-146.64;73.35;38826.16;5086887;28;20028;-75
2022/04/11 08:32:18;;;;;;;14.40;5.83;;;;;;;-146.64;73.58;38854.81;5087043;28;20370;-76
2022/04/11 08:34:44;;;;;;;9.35;5.63;;;;;;;-146.64;73.81;38820.03;5080346;28;20032;-75
2022/04/11 08:37:09;;;;;;;6.23;5.07;;;;;;;-146.64;70.16;38805.69;5101955;28;20030;-76
2022/04/11 08:39:34;;;;;;;7.28;4.78;;;;;;;-146.64;69.38;38817.97;5103378;28;20031;-75
2022/04/11 08:42:01;;;;;;;15.85;4.93;;;;;;;-146.64;68.08;38768.88;5086831;28;20240;-75
2022/04/11 08:44:27;;;;;;;9.93;5.15;;;;;;;-146.64;71.01;38785.25;5065517;28;20031;-75
2022/04/11 08:46:55;;;;;;;12.73;4.50;;;;;;;-146.64;67.95;38762.72;5094210;28;20409;-76
2022/04/11 08:49:20;;;;;;;8.18;4.32;;;;;;;-146.64;68.55;38779.09;5082077;28;20023;-75
2022/04/11 08:51:45;;;;;;;10.13;5.03;;;;;;;-146.64;65.53;38752.50;5082048;28;20035;-74
2022/04/11 08:54:11;;;;;;;9.17;4.80;;;;;;;-146.64;67.81;38715.66;5101761;28;20955;-74
2022/04/11 08:56:36;;;;;;;10.97;3.87;;;;;;;-146.64;62.33;38654.28;5073356;28;20051;-74
2022/04/11 08:59:02;;;;;;;9.53;4.67;;;;;;;-146.64;61.70;38732.03;5081787;28;20456;-75
2022/04/11 09:01:28;;;;;;;11.82;4.32;;;;;;;-146.64;60.90;38715.66;5101008;28;20028;-75
2022/04/11 09:03:53;;;;;;;11.67;4.60;;;;;;;-146.64;58.71;38697.25;5070614;28;20100;-75
2022/04/11 09:06:22;;;;;;;6.70;3.73;;;;;;;-146.64;58.77;38697.25;5101162;28;20035;-76
2022/04/11 09:08:53;;;;;;;8.30;3.70;;;;;;;-146.64;58.58;38613.34;5082794;28;20443;-75
2022/04/11 09:11:28;;;;;;;11.82;3.55;;;;;;;-146.64;55.17;38668.59;5084605;28;20028;-76
2022/04/11 09:13:53;;;;;;;9.48;3.97;;;;;;;-146.64;53.75;38576.53;5098363;28;20064;-77
2022/04/11 09:16:19;;;;;;;10.23;3.70;;;;;;;-146.64;54.23;38646.09;5054436;28;20432;-77
2022/04/11 09:18:49;;;;;;;12.43;3.57;;;;;;;-146.64;52.85;38658.38;5084899;28;20051;-76
2022/04/11 09:21:14;;;;;;;6.20;3.67;;;;;;;-146.64;55.48;38617.44;5085622;28;20032;-77
2022/04/11 09:23:39;;;;;;;7.50;3.20;;;;;;;-146.64;52.32;38533.56;5062123;28;20028;-76
2022/04/11 09:26:34;;;;;;;9.17;3.07;;;;;;;-146.64;49.83;38654.28;5080679;28;20441;-76
2022/04/11 09:29:03;;;;;;;5.47;2.35;;;;;;;-146.64;51.04;38543.78;5043067;28;20035;-76
2022/04/11 09:31:30;;;;;;;8.52;2.83;;;;;;;-146.64;51.53;38596.97;5072024;28;20035;-76
2022/04/11 09:33:55;;;;;;;8.55;3.13;;;;;;;-146.64;49.28;38584.72;5080053;28;20102;-76
2022/04/11 09:36:21;;;;;;;8.17;2.90;;;;;;;-146.64;49.96;38461.94;5084035;28;20047;-76
2022/04/11 09:39:00;;;;;;;6.73;2.97;;;;;;;-146.64;47.81;38584.72;5101938;28;20030;-75
2022/04/11 09:41:34;;;;;;;7.80;2.78;;;;;;;-146.64;49.53;38560.16;5069448;28;20069;-75
2022/04/11 09:44:24;;;;;;;8.93;3.22;;;;;;;-146.64;47.56;38556.06;5085021;28;20046;-76
2022/04/11 09:46:52;;;;;;;12.35;3.30;;;;;;;-146.64;45.36;38568.34;5072941;28;20118;-77
2022/04/11 09:49:18;;;;;;;8.15;3.45;;;;;;;-146.64;45.38;38515.13;5085510;28;20538;-77
2022/04/11 09:52:09;;;;;;;6.97;2.85;;;;;;;-146.64;47.04;38588.81;5078802;28;20395;-76
2022/04/11 09:54:39;;;;;;;8.80;3.33;;;;;;;-146.64;45.67;38558.09;5080195;28;20497;-74
2022/04/11 09:57:05;;;;;;;8.57;2.83;;;;;;;-146.64;45.32;38517.19;5081648;28;20435;-75
2022/04/11 09:59:31;;;;;;;10.52;3.10;;;;;;;-146.64;45.78;38506.94;5081986;28;20035;-74
2022/04/11 10:01:57;;;;;;;11.27;3.93;;;;;;;-146.64;43.26;38521.28;5078374;28;20032;-77
2022/04/11 10:04:23;;;;;;;6.32;3.22;;;;;;;-146.64;44.33;38470.13;5071941;28;20020;-78
2022/04/11 10:06:49;;;;;;;9.57;3.33;;;;;;;-146.64;45.94;38474.22;5082648;28;20043;-77
2022/04/11 10:09:15;;;;;;;9.80;3.60;;;;;;;-146.64;44.48;38551.97;5065985;28;20374;-77
2022/04/11 10:11:44;;;;;;;9.07;3.25;;;;;;;-146.64;45.75;38502.84;5082294;28;20024;-77
2022/04/11 10:14:11;;;;;;;10.48;4.20;;;;;;;-146.64;45.48;38539.69;5061989;28;20071;-75
2022/04/11 10:16:42;;;;;;;11.40;4.05;;;;;;;-146.64;44.13;38506.94;5095485;28;21665;-76
2022/04/11 10:19:08;;;;;;;9.02;3.50;;;;;;;-146.64;45.14;38490.59;5063129;28;20043;-75
2022/04/11 10:21:33;;;;;;;18.45;3.92;;;;;;;-146.64;45.08;38435.34;5084601;28;20023;-77
2022/04/11 10:24:06;;;;;;;7.50;4.10;;;;;;;-146.64;44.66;38410.78;5070534;28;20127;-77
2022/04/11 10:26:56;;;;;;;9.02;4.40;;;;;;;-146.64;43.35;38435.34;5076471;28;20031;-76
2022/04/11 10:29:34;;;;;;;9.35;4.43;;;;;;;-146.64;43.22;38418.97;5087936;28;20024;-77
2022/04/11 10:32:27;;;;;;;8.85;4.10;;;;;;;-146.64;42.80;38404.66;5090616;28;20032;-77
2022/04/11 10:34:56;;;;;;;6.03;3.92;;;;;;;-146.64;42.94;38457.84;5064530;28;20040;-75
2022/04/11 10:37:26;;;;;;;7.72;4.47;;;;;;;-146.64;43.05;38429.19;5075722;28;20085;-76
2022/04/11 10:39:52;;;;;;;9.50;3.85;;;;;;;-146.64;42.29;38539.69;5068780;28;20034;-75
2022/04/11 10:42:19;;;;;;;11.90;4.30;;;;;;;-146.64;41.94;38457.84;5083227;28;20047;-75
2022/04/11 10:44:53;;;;;;;14.90;4.40;;;;;;;-146.64;42.01;38314.63;5102959;28;20691;-76
2022/04/11 10:47:26;;;;;;;11.30;4.43;;;;;;;-146.64;43.51;38410.78;5088382;28;20024;-76
2022/04/11 10:49:53;;;;;;;8.48;4.30;;;;;;;-146.64;43.47;38412.81;5087713;28;20163;-75
2022/04/11 10:52:35;;;;;;;8.25;4.10;;;;;;;-146.64;43.49;38335.06;5089816;28;20035;-76
2022/04/11 10:55:22;;;;;;;6.55;4.05;;;;;;;-146.64;42.87;38302.34;5087651;28;20456;-77
2022/04/11 10:57:57;;;;;;;8.50;3.88;;;;;;;-146.64;42.76;38421.00;5080753;28;20470;-77
2022/04/11 11:00:24;;;;;;;7.88;4.18;;;;;;;-146.64;41.73;38404.66;5086697;28;20032;-77